Terminal Aerodrome Forecast
Issued by NWS

Home | Current Version | Previous Version | Text Only | Print | Product List | Glossary On
Versions: 1 2 3 4 5 6 7 8 9 10 11 12 13 14 15 16
000
FTUS41 KBOX 250531
TAFFMH
TAF
KFMH 250531Z 2506/2606 33009KT P6SM SCT060
     FM250800 33008KT P6SM SCT250
     FM251700 24005KT P6SM SCT150
     FM252100 20009KT P6SM SCT120
     FM260100 19006KT P6SM BKN110=

USA.gov is the U.S. government's official web portal to all federal, state and local government web resources and services.